DLH9XV EPWA-EDDM
Flight info
| Callsign | DLH9XV |
|---|---|
| Flight time | 1h 15m |
| Altitude | 34000 |
| Route | SOXER N869 UVIVI DCT ELVOT DCT IPRUX DCT NIRGO T108 LANDU LANDU2A |
| Aircraft | A321/M-SDE3FGHIRWY/LB1 |
Departure
| Time | 2026-05-04 17:41 |
|---|---|
| Airport | Warsaw Chopin Airport (EPWA) |
Arrival
| Time | 2026-05-04 18:57 |
|---|---|
| Airport | Munich Airport (EDDM) |
| Time | Latitude | Longitude | Altitude | Speed | Heading |
|---|---|---|---|---|---|
| 2026-05-04 16:53 | 52.16958 | 20.97192 | 337 ft | 0 kts | 68° |
| 2026-05-04 17:32 | 52.16957 | 20.97188 | 339 ft | 3 kts | 68° |
| 2026-05-04 17:33 | 52.16929 | 20.97075 | 336 ft | 4 kts | 88° |
| 2026-05-04 17:33 | 52.16937 | 20.97038 | 335 ft | 4 kts | 138° |
| 2026-05-04 17:34 | 52.16955 | 20.97017 | 336 ft | 0 kts | 152° |
| 2026-05-04 17:37 | 52.16936 | 20.97034 | 335 ft | 8 kts | 151° |
| 2026-05-04 17:37 | 52.16863 | 20.97098 | 336 ft | 15 kts | 151° |
| 2026-05-04 17:37 | 52.16767 | 20.97182 | 336 ft | 16 kts | 152° |
| 2026-05-04 17:37 | 52.16667 | 20.97268 | 336 ft | 17 kts | 152° |
| 2026-05-04 17:38 | 52.16588 | 20.97342 | 335 ft | 11 kts | 140° |
| 2026-05-04 17:38 | 52.16549 | 20.97460 | 338 ft | 12 kts | 115° |
| 2026-05-04 17:38 | 52.16512 | 20.97591 | 337 ft | 13 kts | 115° |
| 2026-05-04 17:38 | 52.16473 | 20.97730 | 335 ft | 13 kts | 114° |
| 2026-05-04 17:39 | 52.16385 | 20.97781 | 337 ft | 0 kts | 204° |
| 2026-05-04 17:39 | 52.16382 | 20.97779 | 339 ft | 1 kts | 204° |
| 2026-05-04 17:40 | 52.16366 | 20.97767 | 336 ft | 5 kts | 204° |
| 2026-05-04 17:40 | 52.16327 | 20.97739 | 335 ft | 7 kts | 204° |
| 2026-05-04 17:40 | 52.16307 | 20.97670 | 337 ft | 9 kts | 287° |
| 2026-05-04 17:40 | 52.16386 | 20.97387 | 338 ft | 61 kts | 294° |
| 2026-05-04 17:41 | 52.16664 | 20.96398 | 347 ft | 128 kts | 294° |
| 2026-05-04 17:41 | 52.17102 | 20.94846 | 524 ft | 161 kts | 291° |
| 2026-05-04 17:41 | 52.17559 | 20.93236 | 1285 ft | 155 kts | 291° |
| 2026-05-04 17:41 | 52.18008 | 20.91643 | 1946 ft | 153 kts | 291° |
| 2026-05-04 17:42 | 52.18219 | 20.89988 | 2487 ft | 149 kts | 264° |
| 2026-05-04 17:42 | 52.18145 | 20.88299 | 3035 ft | 149 kts | 263° |
| 2026-05-04 17:42 | 52.17958 | 20.86634 | 3552 ft | 151 kts | 256° |
| 2026-05-04 17:42 | 52.17710 | 20.84873 | 3825 ft | 170 kts | 256° |
| 2026-05-04 17:43 | 52.17427 | 20.82894 | 4048 ft | 192 kts | 256° |
| 2026-05-04 17:43 | 52.17108 | 20.80655 | 4252 ft | 214 kts | 256° |
| 2026-05-04 17:43 | 52.16752 | 20.78159 | 4373 ft | 239 kts | 256° |
| 2026-05-04 17:43 | 52.16362 | 20.75414 | 4782 ft | 255 kts | 256° |
| 2026-05-04 17:44 | 52.15956 | 20.72570 | 5459 ft | 259 kts | 257° |
| 2026-05-04 17:44 | 52.15546 | 20.69691 | 6197 ft | 261 kts | 256° |
| 2026-05-04 17:44 | 52.15134 | 20.66809 | 6946 ft | 262 kts | 256° |
| 2026-05-04 17:44 | 52.14723 | 20.63945 | 7645 ft | 263 kts | 256° |
| 2026-05-04 17:45 | 52.14304 | 20.61029 | 8353 ft | 266 kts | 256° |
| 2026-05-04 17:45 | 52.13882 | 20.58080 | 9065 ft | 268 kts | 256° |
| 2026-05-04 17:45 | 52.13455 | 20.55094 | 9720 ft | 273 kts | 256° |
| 2026-05-04 17:45 | 52.13016 | 20.52052 | 10191 ft | 283 kts | 256° |
| 2026-05-04 17:46 | 52.12551 | 20.48848 | 10317 ft | 305 kts | 256° |
| 2026-05-04 17:46 | 52.12048 | 20.45396 | 10554 ft | 320 kts | 256° |
| 2026-05-04 17:46 | 52.11530 | 20.41837 | 11085 ft | 324 kts | 256° |
| 2026-05-04 17:46 | 52.11008 | 20.38253 | 11710 ft | 326 kts | 256° |
| 2026-05-04 17:47 | 52.10481 | 20.34643 | 12352 ft | 328 kts | 256° |
| 2026-05-04 17:47 | 52.09952 | 20.31023 | 12990 ft | 330 kts | 255° |
| 2026-05-04 17:47 | 52.09421 | 20.27389 | 13627 ft | 331 kts | 255° |
| 2026-05-04 17:47 | 52.08890 | 20.23773 | 14200 ft | 333 kts | 255° |
| 2026-05-04 17:48 | 52.08346 | 20.20082 | 14711 ft | 337 kts | 255° |
| 2026-05-04 17:48 | 52.07798 | 20.16354 | 15227 ft | 340 kts | 255° |
| 2026-05-04 17:48 | 52.07243 | 20.12595 | 15738 ft | 343 kts | 256° |
| 2026-05-04 17:48 | 52.06686 | 20.08843 | 16235 ft | 347 kts | 256° |
| 2026-05-04 17:49 | 52.06113 | 20.05006 | 16737 ft | 350 kts | 256° |
| 2026-05-04 17:49 | 52.05534 | 20.01143 | 17221 ft | 354 kts | 256° |
| 2026-05-04 17:49 | 52.04946 | 19.97234 | 17722 ft | 357 kts | 256° |
| 2026-05-04 17:49 | 52.04335 | 19.93306 | 18214 ft | 359 kts | 252° |
| 2026-05-04 17:50 | 52.03527 | 19.89501 | 18645 ft | 362 kts | 250° |
| 2026-05-04 17:50 | 52.02687 | 19.85627 | 19092 ft | 364 kts | 250° |
| 2026-05-04 17:50 | 52.01844 | 19.81737 | 19524 ft | 366 kts | 250° |
| 2026-05-04 17:50 | 52.00995 | 19.77815 | 19963 ft | 369 kts | 250° |
| 2026-05-04 17:51 | 52.00138 | 19.73859 | 20383 ft | 371 kts | 250° |
| 2026-05-04 17:51 | 51.99288 | 19.69950 | 20790 ft | 373 kts | 250° |
| 2026-05-04 17:51 | 51.98415 | 19.65960 | 21208 ft | 376 kts | 250° |
| 2026-05-04 17:51 | 51.97533 | 19.61943 | 21619 ft | 378 kts | 250° |
| 2026-05-04 17:52 | 51.96648 | 19.57913 | 22027 ft | 380 kts | 250° |
| 2026-05-04 17:52 | 51.95758 | 19.53851 | 22427 ft | 383 kts | 250° |
| 2026-05-04 17:52 | 51.94875 | 19.49825 | 22815 ft | 385 kts | 250° |
| 2026-05-04 17:52 | 51.93975 | 19.45726 | 23207 ft | 387 kts | 250° |
| 2026-05-04 17:53 | 51.93067 | 19.41604 | 23582 ft | 390 kts | 250° |
| 2026-05-04 17:53 | 51.92148 | 19.37452 | 23921 ft | 391 kts | 250° |
| 2026-05-04 17:53 | 51.91227 | 19.33293 | 24265 ft | 393 kts | 250° |
| 2026-05-04 17:53 | 51.90301 | 19.29117 | 24604 ft | 395 kts | 250° |
| 2026-05-04 17:54 | 51.89365 | 19.24917 | 24943 ft | 396 kts | 250° |
| 2026-05-04 17:54 | 51.88433 | 19.20749 | 25278 ft | 398 kts | 251° |
| 2026-05-04 17:54 | 51.87488 | 19.16528 | 25614 ft | 400 kts | 251° |
| 2026-05-04 17:54 | 51.86535 | 19.12272 | 25944 ft | 401 kts | 251° |
| 2026-05-04 17:55 | 51.85587 | 19.08004 | 26263 ft | 403 kts | 251° |
| 2026-05-04 17:55 | 51.84647 | 19.03714 | 26592 ft | 405 kts | 251° |
| 2026-05-04 17:55 | 51.83722 | 18.99461 | 26900 ft | 406 kts | 251° |
| 2026-05-04 17:55 | 51.82777 | 18.95124 | 27226 ft | 408 kts | 251° |
| 2026-05-04 17:56 | 51.81830 | 18.90793 | 27531 ft | 410 kts | 251° |
| 2026-05-04 17:56 | 51.80876 | 18.86446 | 27844 ft | 411 kts | 251° |
| 2026-05-04 17:56 | 51.79914 | 18.82085 | 28153 ft | 413 kts | 251° |
| 2026-05-04 17:56 | 51.78946 | 18.77697 | 28461 ft | 415 kts | 251° |
| 2026-05-04 17:57 | 51.77986 | 18.73352 | 28778 ft | 416 kts | 251° |
| 2026-05-04 17:57 | 51.77010 | 18.68945 | 29083 ft | 417 kts | 251° |
| 2026-05-04 17:57 | 51.76026 | 18.64515 | 29371 ft | 419 kts | 251° |
| 2026-05-04 17:57 | 51.75040 | 18.60074 | 29628 ft | 422 kts | 251° |
| 2026-05-04 17:58 | 51.74043 | 18.55600 | 29890 ft | 424 kts | 251° |
| 2026-05-04 17:58 | 51.73053 | 18.51180 | 30122 ft | 425 kts | 251° |
| 2026-05-04 17:58 | 51.72042 | 18.46676 | 30345 ft | 427 kts | 251° |
| 2026-05-04 17:58 | 51.71024 | 18.42152 | 30576 ft | 428 kts | 251° |
| 2026-05-04 17:59 | 51.70003 | 18.37631 | 30786 ft | 429 kts | 251° |
| 2026-05-04 17:59 | 51.68979 | 18.33104 | 31030 ft | 429 kts | 251° |
| 2026-05-04 17:59 | 51.66958 | 18.24160 | 31644 ft | 426 kts | 251° |
| 2026-05-04 18:00 | 51.65940 | 18.19680 | 31940 ft | 424 kts | 251° |
| 2026-05-04 18:00 | 51.64924 | 18.15227 | 32251 ft | 423 kts | 251° |
| 2026-05-04 18:00 | 51.63912 | 18.10799 | 32594 ft | 420 kts | 251° |
| 2026-05-04 18:00 | 51.62904 | 18.06397 | 32921 ft | 418 kts | 251° |
| 2026-05-04 18:01 | 51.61894 | 18.02006 | 33222 ft | 417 kts | 251° |
| 2026-05-04 18:01 | 51.60900 | 17.97695 | 33478 ft | 416 kts | 251° |
| 2026-05-04 18:01 | 51.59885 | 17.93321 | 33699 ft | 417 kts | 249° |
| 2026-05-04 18:02 | 51.56844 | 17.85411 | 33934 ft | 416 kts | 230° |
| 2026-05-04 18:02 | 51.54784 | 17.82138 | 33934 ft | 415 kts | 227° |
| 2026-05-04 18:02 | 51.50637 | 17.75754 | 33937 ft | 414 kts | 227° |
| 2026-05-04 18:03 | 51.46517 | 17.69366 | 33934 ft | 414 kts | 227° |
| 2026-05-04 18:03 | 51.42366 | 17.62935 | 33914 ft | 414 kts | 227° |
| 2026-05-04 18:04 | 51.38225 | 17.56554 | 33936 ft | 416 kts | 227° |
| 2026-05-04 18:05 | 51.32660 | 17.48022 | 33935 ft | 416 kts | 226° |
| 2026-05-04 18:05 | 51.28475 | 17.41622 | 33940 ft | 416 kts | 226° |
| 2026-05-04 18:06 | 51.22219 | 17.32081 | 33927 ft | 415 kts | 226° |
| 2026-05-04 18:06 | 51.18031 | 17.25701 | 33935 ft | 416 kts | 226° |
| 2026-05-04 18:07 | 51.13836 | 17.19345 | 33942 ft | 416 kts | 226° |
| 2026-05-04 18:07 | 51.09663 | 17.13039 | 33944 ft | 416 kts | 226° |
| 2026-05-04 18:08 | 51.05457 | 17.06704 | 33946 ft | 416 kts | 226° |
| 2026-05-04 18:08 | 51.01249 | 17.00372 | 33927 ft | 416 kts | 226° |
| 2026-05-04 18:09 | 50.92826 | 16.87746 | 33932 ft | 418 kts | 226° |
| 2026-05-04 18:10 | 50.88590 | 16.81426 | 33929 ft | 418 kts | 226° |
| 2026-05-04 18:10 | 50.84372 | 16.75157 | 33936 ft | 418 kts | 226° |
| 2026-05-04 18:11 | 50.80128 | 16.68849 | 33932 ft | 418 kts | 226° |
| 2026-05-04 18:11 | 50.75876 | 16.62551 | 33941 ft | 419 kts | 226° |
| 2026-05-04 18:12 | 50.71616 | 16.56260 | 33955 ft | 419 kts | 226° |
| 2026-05-04 18:12 | 50.67381 | 16.50031 | 33962 ft | 418 kts | 226° |
| 2026-05-04 18:13 | 50.63131 | 16.43780 | 33959 ft | 417 kts | 227° |
| 2026-05-04 18:13 | 50.59715 | 16.36512 | 33960 ft | 412 kts | 244° |
| 2026-05-04 18:14 | 50.58402 | 16.32499 | 33957 ft | 412 kts | 244° |
| 2026-05-04 18:14 | 50.55783 | 16.24547 | 33958 ft | 412 kts | 244° |
| 2026-05-04 18:15 | 50.50457 | 16.08570 | 33964 ft | 412 kts | 244° |
| 2026-05-04 18:16 | 50.47813 | 16.00635 | 33959 ft | 412 kts | 244° |
| 2026-05-04 18:16 | 50.45145 | 15.92656 | 33955 ft | 412 kts | 244° |
| 2026-05-04 18:17 | 50.41151 | 15.80754 | 33951 ft | 412 kts | 243° |
| 2026-05-04 18:18 | 50.37125 | 15.68819 | 33956 ft | 412 kts | 243° |
| 2026-05-04 18:18 | 50.34453 | 15.60929 | 33951 ft | 412 kts | 243° |
| 2026-05-04 18:19 | 50.30400 | 15.49020 | 33953 ft | 412 kts | 243° |
| 2026-05-04 18:19 | 50.27704 | 15.41143 | 33938 ft | 413 kts | 243° |
| 2026-05-04 18:20 | 50.24984 | 15.33209 | 33941 ft | 414 kts | 243° |
| 2026-05-04 18:20 | 50.22268 | 15.25306 | 33939 ft | 414 kts | 243° |
| 2026-05-04 18:21 | 50.19525 | 15.17361 | 33947 ft | 415 kts | 243° |
| 2026-05-04 18:21 | 50.16778 | 15.09429 | 33950 ft | 415 kts | 243° |
| 2026-05-04 18:22 | 50.14040 | 15.01534 | 33953 ft | 415 kts | 243° |
| 2026-05-04 18:22 | 50.11302 | 14.93653 | 33954 ft | 415 kts | 242° |
| 2026-05-04 18:23 | 50.08541 | 14.85726 | 33958 ft | 415 kts | 242° |
| 2026-05-04 18:23 | 50.05788 | 14.77867 | 33955 ft | 415 kts | 242° |
| 2026-05-04 18:24 | 50.03010 | 14.69974 | 33971 ft | 415 kts | 242° |
| 2026-05-04 18:24 | 50.00238 | 14.62107 | 33974 ft | 414 kts | 242° |
| 2026-05-04 18:25 | 49.97488 | 14.54314 | 33972 ft | 413 kts | 242° |
| 2026-05-04 18:25 | 49.94716 | 14.46482 | 33959 ft | 412 kts | 242° |
| 2026-05-04 18:26 | 49.91941 | 14.38676 | 33977 ft | 412 kts | 242° |
| 2026-05-04 18:26 | 49.89176 | 14.30936 | 33974 ft | 412 kts | 242° |
| 2026-05-04 18:27 | 49.86388 | 14.23159 | 33977 ft | 412 kts | 242° |
| 2026-05-04 18:27 | 49.83601 | 14.15401 | 33983 ft | 411 kts | 242° |
| 2026-05-04 18:28 | 49.80833 | 14.07709 | 33977 ft | 411 kts | 242° |
| 2026-05-04 18:28 | 49.78047 | 13.99981 | 33973 ft | 410 kts | 241° |
| 2026-05-04 18:29 | 49.75257 | 13.92268 | 33969 ft | 409 kts | 241° |
| 2026-05-04 18:29 | 49.72499 | 13.84671 | 33662 ft | 401 kts | 241° |
| 2026-05-04 18:30 | 49.69777 | 13.77223 | 33113 ft | 394 kts | 241° |
| 2026-05-04 18:30 | 49.68429 | 13.73535 | 32852 ft | 393 kts | 241° |
| 2026-05-04 18:30 | 49.67103 | 13.69911 | 32580 ft | 391 kts | 241° |
| 2026-05-04 18:31 | 49.65768 | 13.66255 | 32322 ft | 390 kts | 241° |
| 2026-05-04 18:31 | 49.64437 | 13.62615 | 32056 ft | 389 kts | 241° |
| 2026-05-04 18:31 | 49.63104 | 13.58980 | 31805 ft | 388 kts | 240° |
| 2026-05-04 18:31 | 49.61776 | 13.55366 | 31536 ft | 387 kts | 240° |
| 2026-05-04 18:32 | 49.60448 | 13.51758 | 31282 ft | 386 kts | 240° |
| 2026-05-04 18:32 | 49.59129 | 13.48182 | 30990 ft | 380 kts | 240° |
| 2026-05-04 18:32 | 49.57827 | 13.44662 | 30579 ft | 376 kts | 240° |
| 2026-05-04 18:32 | 49.56552 | 13.41222 | 30179 ft | 372 kts | 240° |
| 2026-05-04 18:33 | 49.55278 | 13.37788 | 29733 ft | 368 kts | 240° |
| 2026-05-04 18:33 | 49.54013 | 13.34383 | 29331 ft | 363 kts | 240° |
| 2026-05-04 18:33 | 49.52767 | 13.31027 | 28954 ft | 358 kts | 240° |
| 2026-05-04 18:33 | 49.51534 | 13.27737 | 28573 ft | 352 kts | 238° |
| 2026-05-04 18:34 | 49.50053 | 13.24761 | 28192 ft | 348 kts | 227° |
| 2026-05-04 18:34 | 49.48256 | 13.22344 | 27810 ft | 345 kts | 216° |
| 2026-05-04 18:34 | 49.46174 | 13.20505 | 27424 ft | 345 kts | 206° |
| 2026-05-04 18:34 | 49.43922 | 13.19213 | 27044 ft | 344 kts | 202° |
| 2026-05-04 18:35 | 49.41691 | 13.17993 | 26671 ft | 342 kts | 202° |
| 2026-05-04 18:35 | 49.39450 | 13.16759 | 26297 ft | 340 kts | 202° |
| 2026-05-04 18:35 | 49.37229 | 13.15529 | 25921 ft | 338 kts | 202° |
| 2026-05-04 18:35 | 49.35015 | 13.14300 | 25538 ft | 337 kts | 202° |
| 2026-05-04 18:36 | 49.32828 | 13.13032 | 25168 ft | 334 kts | 207° |
| 2026-05-04 18:36 | 49.30776 | 13.11505 | 24810 ft | 331 kts | 208° |
| 2026-05-04 18:36 | 49.28705 | 13.09951 | 24438 ft | 330 kts | 208° |
| 2026-05-04 18:36 | 49.26644 | 13.08414 | 24060 ft | 328 kts | 208° |
| 2026-05-04 18:37 | 49.24589 | 13.06889 | 23684 ft | 327 kts | 208° |
| 2026-05-04 18:37 | 49.22545 | 13.05370 | 23260 ft | 325 kts | 208° |
| 2026-05-04 18:37 | 49.20538 | 13.03882 | 22872 ft | 323 kts | 208° |
| 2026-05-04 18:37 | 49.18514 | 13.02398 | 22494 ft | 321 kts | 208° |
| 2026-05-04 18:38 | 49.16498 | 13.00932 | 22113 ft | 319 kts | 207° |
| 2026-05-04 18:38 | 49.14495 | 12.99482 | 21730 ft | 317 kts | 207° |
| 2026-05-04 18:38 | 49.12507 | 12.98044 | 21344 ft | 314 kts | 207° |
| 2026-05-04 18:38 | 49.10565 | 12.96640 | 20982 ft | 312 kts | 207° |
| 2026-05-04 18:39 | 49.08609 | 12.95222 | 20610 ft | 310 kts | 207° |
| 2026-05-04 18:39 | 49.06672 | 12.93816 | 20242 ft | 307 kts | 207° |
| 2026-05-04 18:39 | 49.04747 | 12.92415 | 19871 ft | 305 kts | 207° |
| 2026-05-04 18:39 | 49.02835 | 12.91026 | 19497 ft | 302 kts | 207° |
| 2026-05-04 18:40 | 49.00937 | 12.89652 | 19141 ft | 300 kts | 207° |
| 2026-05-04 18:40 | 48.99080 | 12.88310 | 18787 ft | 298 kts | 207° |
| 2026-05-04 18:40 | 48.97208 | 12.86954 | 18423 ft | 297 kts | 207° |
| 2026-05-04 18:40 | 48.95343 | 12.85605 | 18041 ft | 295 kts | 207° |
| 2026-05-04 18:41 | 48.93497 | 12.84275 | 17670 ft | 292 kts | 207° |
| 2026-05-04 18:41 | 48.91662 | 12.82953 | 17316 ft | 290 kts | 207° |
| 2026-05-04 18:41 | 48.89848 | 12.81646 | 16969 ft | 288 kts | 206° |
| 2026-05-04 18:41 | 48.88046 | 12.80349 | 16626 ft | 285 kts | 206° |
| 2026-05-04 18:42 | 48.86254 | 12.79058 | 16279 ft | 283 kts | 206° |
| 2026-05-04 18:42 | 48.84499 | 12.77798 | 15946 ft | 281 kts | 206° |
| 2026-05-04 18:42 | 48.82730 | 12.76536 | 15609 ft | 279 kts | 206° |
| 2026-05-04 18:42 | 48.80978 | 12.75288 | 15266 ft | 277 kts | 206° |
| 2026-05-04 18:43 | 48.79234 | 12.74044 | 14944 ft | 276 kts | 206° |
| 2026-05-04 18:43 | 48.77505 | 12.72809 | 14615 ft | 274 kts | 205° |
| 2026-05-04 18:43 | 48.75785 | 12.71582 | 14288 ft | 272 kts | 205° |
| 2026-05-04 18:43 | 48.74104 | 12.70384 | 13967 ft | 270 kts | 205° |
| 2026-05-04 18:44 | 48.72411 | 12.69177 | 13633 ft | 268 kts | 205° |
| 2026-05-04 18:44 | 48.71840 | 12.68769 | 13512 ft | 267 kts | 205° |
| 2026-05-04 18:44 | 48.69050 | 12.66778 | 12958 ft | 266 kts | 205° |
| 2026-05-04 18:44 | 48.67376 | 12.65583 | 12630 ft | 266 kts | 205° |
| 2026-05-04 18:45 | 48.65707 | 12.64388 | 12306 ft | 265 kts | 205° |
| 2026-05-04 18:45 | 48.64110 | 12.63005 | 11976 ft | 265 kts | 218° |
| 2026-05-04 18:45 | 48.62836 | 12.61005 | 11647 ft | 265 kts | 234° |
| 2026-05-04 18:45 | 48.61991 | 12.58522 | 11325 ft | 268 kts | 250° |
| 2026-05-04 18:46 | 48.61636 | 12.55753 | 11012 ft | 270 kts | 262° |
| 2026-05-04 18:46 | 48.61446 | 12.52861 | 10911 ft | 280 kts | 261° |
| 2026-05-04 18:46 | 48.61119 | 12.49962 | 10920 ft | 285 kts | 247° |
| 2026-05-04 18:46 | 48.60076 | 12.47432 | 10711 ft | 284 kts | 223° |
| 2026-05-04 18:47 | 48.58426 | 12.45879 | 10351 ft | 280 kts | 199° |
| 2026-05-04 18:47 | 48.56552 | 12.45066 | 9978 ft | 278 kts | 195° |
| 2026-05-04 18:47 | 48.54714 | 12.44373 | 9634 ft | 274 kts | 194° |
| 2026-05-04 18:47 | 48.52845 | 12.43678 | 9260 ft | 271 kts | 194° |
| 2026-05-04 18:48 | 48.51021 | 12.42999 | 8905 ft | 269 kts | 194° |
| 2026-05-04 18:48 | 48.49240 | 12.42328 | 8550 ft | 266 kts | 194° |
| 2026-05-04 18:48 | 48.47455 | 12.41648 | 8240 ft | 262 kts | 194° |
| 2026-05-04 18:48 | 48.45700 | 12.40974 | 7936 ft | 259 kts | 194° |
| 2026-05-04 18:49 | 48.43963 | 12.40302 | 7642 ft | 256 kts | 194° |
| 2026-05-04 18:49 | 48.42256 | 12.39636 | 7386 ft | 251 kts | 194° |
| 2026-05-04 18:49 | 48.40588 | 12.38981 | 7198 ft | 244 kts | 194° |
| 2026-05-04 18:49 | 48.38966 | 12.38336 | 7068 ft | 240 kts | 196° |
| 2026-05-04 18:50 | 48.37521 | 12.37147 | 6950 ft | 239 kts | 225° |
| 2026-05-04 18:50 | 48.36696 | 12.34993 | 6837 ft | 242 kts | 256° |
| 2026-05-04 18:50 | 48.36780 | 12.32491 | 6733 ft | 245 kts | 290° |
| 2026-05-04 18:50 | 48.37470 | 12.30117 | 6669 ft | 248 kts | 292° |
| 2026-05-04 18:51 | 48.38160 | 12.27772 | 6607 ft | 248 kts | 292° |
| 2026-05-04 18:51 | 48.38858 | 12.25394 | 6535 ft | 248 kts | 292° |
| 2026-05-04 18:51 | 48.39478 | 12.22979 | 6459 ft | 247 kts | 279° |
| 2026-05-04 18:51 | 48.39560 | 12.20412 | 6318 ft | 244 kts | 264° |
| 2026-05-04 18:52 | 48.39374 | 12.17875 | 6026 ft | 243 kts | 262° |
| 2026-05-04 18:52 | 48.39170 | 12.15346 | 5710 ft | 242 kts | 262° |
| 2026-05-04 18:52 | 48.38983 | 12.12854 | 5384 ft | 236 kts | 263° |
| 2026-05-04 18:52 | 48.38807 | 12.10455 | 5101 ft | 231 kts | 263° |
| 2026-05-04 18:53 | 48.38633 | 12.08076 | 4813 ft | 225 kts | 263° |
| 2026-05-04 18:53 | 48.38463 | 12.05786 | 4532 ft | 216 kts | 263° |
| 2026-05-04 18:53 | 48.38300 | 12.03585 | 4237 ft | 208 kts | 263° |
| 2026-05-04 18:53 | 48.38142 | 12.01459 | 3968 ft | 201 kts | 263° |
| 2026-05-04 18:54 | 48.37990 | 11.99420 | 3716 ft | 192 kts | 263° |
| 2026-05-04 18:54 | 48.37843 | 11.97445 | 3470 ft | 189 kts | 263° |
| 2026-05-04 18:54 | 48.37698 | 11.95512 | 3230 ft | 181 kts | 263° |
| 2026-05-04 18:54 | 48.37562 | 11.93693 | 3010 ft | 170 kts | 264° |
| 2026-05-04 18:55 | 48.37433 | 11.91979 | 2787 ft | 161 kts | 263° |
| 2026-05-04 18:55 | 48.37184 | 11.88685 | 2369 ft | 157 kts | 264° |
| 2026-05-04 18:55 | 48.37062 | 11.87069 | 2154 ft | 154 kts | 264° |
| 2026-05-04 18:56 | 48.36942 | 11.85477 | 1943 ft | 152 kts | 265° |
| 2026-05-04 18:56 | 48.36824 | 11.83928 | 1730 ft | 150 kts | 265° |
| 2026-05-04 18:56 | 48.36706 | 11.82353 | 1560 ft | 149 kts | 264° |
| 2026-05-04 18:56 | 48.36592 | 11.80862 | 1487 ft | 134 kts | 264° |
| 2026-05-04 18:57 | 48.36503 | 11.79707 | 1482 ft | 85 kts | 263° |
| 2026-05-04 18:57 | 48.36450 | 11.79068 | 1473 ft | 48 kts | 259° |
| 2026-05-04 18:57 | 48.36321 | 11.78749 | 1474 ft | 31 kts | 233° |
| 2026-05-04 18:57 | 48.36243 | 11.78591 | 1471 ft | 16 kts | 233° |
| 2026-05-04 18:58 | 48.36220 | 11.78544 | 1476 ft | 0 kts | 233° |
| 2026-05-04 18:59 | 48.36214 | 11.78533 | 1480 ft | 4 kts | 231° |
| 2026-05-04 18:59 | 48.36197 | 11.78506 | 1482 ft | 7 kts | 222° |
| 2026-05-04 18:59 | 48.36110 | 11.78481 | 1475 ft | 12 kts | 174° |
| 2026-05-04 19:00 | 48.36035 | 11.78529 | 1480 ft | 12 kts | 111° |
| 2026-05-04 19:00 | 48.36039 | 11.78618 | 1485 ft | 13 kts | 84° |
| 2026-05-04 19:00 | 48.36050 | 11.78763 | 1473 ft | 15 kts | 83° |
| 2026-05-04 19:00 | 48.36062 | 11.78923 | 1478 ft | 16 kts | 83° |
| 2026-05-04 19:01 | 48.36077 | 11.79114 | 1479 ft | 10 kts | 83° |
| 2026-05-04 19:01 | 48.36083 | 11.79185 | 1485 ft | 11 kts | 83° |
| 2026-05-04 19:01 | 48.36048 | 11.79315 | 1481 ft | 12 kts | 158° |
| 2026-05-04 19:01 | 48.35991 | 11.79332 | 1482 ft | 13 kts | 172° |
| 2026-05-04 19:02 | 48.35908 | 11.79390 | 1474 ft | 14 kts | 129° |
| 2026-05-04 19:02 | 48.35824 | 11.79459 | 1479 ft | 15 kts | 173° |
| 2026-05-04 19:02 | 48.35715 | 11.79478 | 1476 ft | 16 kts | 174° |
| 2026-05-04 19:02 | 48.35597 | 11.79497 | 1481 ft | 17 kts | 173° |
| 2026-05-04 19:03 | 48.35495 | 11.79515 | 1478 ft | 12 kts | 173° |
| 2026-05-04 19:03 | 48.35408 | 11.79530 | 1478 ft | 13 kts | 173° |
| 2026-05-04 19:03 | 48.35326 | 11.79544 | 1481 ft | 11 kts | 173° |
| 2026-05-04 19:03 | 48.35254 | 11.79546 | 1485 ft | 8 kts | 213° |
| 2026-05-04 19:04 | 48.35245 | 11.79457 | 1485 ft | 8 kts | 263° |
| 2026-05-04 19:04 | 48.35239 | 11.79383 | 1481 ft | 6 kts | 263° |
| 2026-05-04 19:04 | 48.35237 | 11.79352 | 1485 ft | 0 kts | 263° |